sensor_id;sensor_type;location;lat;lon;timestamp;P1;durP1;ratioP1;P2;durP2;ratioP2
59728;SDS011;45588;51.598;5.618;2023-01-08T00:00:50;7.70;;;5.35;;
59728;SDS011;45588;51.598;5.618;2023-01-08T00:03:15;10.63;;;5.70;;
59728;SDS011;45588;51.598;5.618;2023-01-08T00:05:40;7.50;;;5.03;;
59728;SDS011;45588;51.598;5.618;2023-01-08T00:08:06;8.80;;;5.77;;
59728;SDS011;45588;51.598;5.618;2023-01-08T00:10:32;5.55;;;4.57;;
59728;SDS011;45588;51.598;5.618;2023-01-08T00:12:58;6.35;;;5.40;;
59728;SDS011;45588;51.598;5.618;2023-01-08T00:15:23;6.43;;;4.83;;
59728;SDS011;45588;51.598;5.618;2023-01-08T00:17:48;9.95;;;5.95;;
59728;SDS011;45588;51.598;5.618;2023-01-08T00:20:13;6.17;;;4.90;;
59728;SDS011;45588;51.598;5.618;2023-01-08T00:22:38;6.53;;;4.85;;
59728;SDS011;45588;51.598;5.618;2023-01-08T00:25:04;5.65;;;5.15;;
59728;SDS011;45588;51.598;5.618;2023-01-08T00:27:29;8.90;;;5.50;;
59728;SDS011;45588;51.598;5.618;2023-01-08T00:29:54;9.35;;;5.70;;
59728;SDS011;45588;51.598;5.618;2023-01-08T00:32:20;9.00;;;5.50;;
59728;SDS011;45588;51.598;5.618;2023-01-08T00:34:45;9.15;;;5.70;;
59728;SDS011;45588;51.598;5.618;2023-01-08T00:37:10;5.97;;;5.38;;
59728;SDS011;45588;51.598;5.618;2023-01-08T00:39:35;8.80;;;5.03;;
59728;SDS011;45588;51.598;5.618;2023-01-08T00:42:00;6.15;;;4.90;;
59728;SDS011;45588;51.598;5.618;2023-01-08T00:44:26;7.10;;;5.00;;
59728;SDS011;45588;51.598;5.618;2023-01-08T00:46:51;8.33;;;5.27;;
59728;SDS011;45588;51.598;5.618;2023-01-08T00:49:16;8.60;;;5.47;;
59728;SDS011;45588;51.598;5.618;2023-01-08T00:51:41;8.33;;;5.27;;
59728;SDS011;45588;51.598;5.618;2023-01-08T00:54:07;7.28;;;5.32;;
59728;SDS011;45588;51.598;5.618;2023-01-08T00:56:32;6.40;;;5.10;;
59728;SDS011;45588;51.598;5.618;2023-01-08T00:58:57;6.93;;;5.53;;
59728;SDS011;45588;51.598;5.618;2023-01-08T01:01:23;7.65;;;5.20;;
59728;SDS011;45588;51.598;5.618;2023-01-08T01:03:48;8.30;;;5.10;;
59728;SDS011;45588;51.598;5.618;2023-01-08T01:06:13;8.27;;;5.90;;
59728;SDS011;45588;51.598;5.618;2023-01-08T01:08:39;8.77;;;5.63;;
59728;SDS011;45588;51.598;5.618;2023-01-08T01:11:05;7.55;;;5.40;;
59728;SDS011;45588;51.598;5.618;2023-01-08T01:13:30;10.05;;;5.72;;
59728;SDS011;45588;51.598;5.618;2023-01-08T01:15:56;7.13;;;5.73;;
59728;SDS011;45588;51.598;5.618;2023-01-08T01:18:22;6.78;;;4.78;;
59728;SDS011;45588;51.598;5.618;2023-01-08T01:20:47;10.23;;;5.60;;
59728;SDS011;45588;51.598;5.618;2023-01-08T01:23:12;6.97;;;4.87;;
59728;SDS011;45588;51.598;5.618;2023-01-08T01:25:37;8.47;;;5.80;;
59728;SDS011;45588;51.598;5.618;2023-01-08T01:28:02;6.23;;;5.60;;
59728;SDS011;45588;51.598;5.618;2023-01-08T01:30:27;9.07;;;5.82;;
59728;SDS011;45588;51.598;5.618;2023-01-08T01:32:53;9.43;;;5.77;;
59728;SDS011;45588;51.598;5.618;2023-01-08T01:35:18;9.55;;;5.85;;
59728;SDS011;45588;51.598;5.618;2023-01-08T01:37:44;8.80;;;5.67;;
59728;SDS011;45588;51.598;5.618;2023-01-08T01:40:09;11.47;;;5.63;;
59728;SDS011;45588;51.598;5.618;2023-01-08T01:42:34;10.10;;;6.53;;
59728;SDS011;45588;51.598;5.618;2023-01-08T01:45:15;8.98;;;5.70;;
59728;SDS011;45588;51.598;5.618;2023-01-08T01:47:41;10.02;;;6.00;;
59728;SDS011;45588;51.598;5.618;2023-01-08T01:52:43;7.50;;;5.75;;
59728;SDS011;45588;51.598;5.618;2023-01-08T01:55:09;9.70;;;5.70;;
59728;SDS011;45588;51.598;5.618;2023-01-08T01:57:35;10.13;;;5.57;;
59728;SDS011;45588;51.598;5.618;2023-01-08T02:00:02;8.10;;;5.82;;
59728;SDS011;45588;51.598;5.618;2023-01-08T02:02:28;10.65;;;5.53;;
59728;SDS011;45588;51.598;5.618;2023-01-08T02:04:54;7.10;;;3.60;;
59728;SDS011;45588;51.598;5.618;2023-01-08T02:07:39;5.68;;;3.17;;
59728;SDS011;45588;51.598;5.618;2023-01-08T02:10:09;4.40;;;2.58;;
59728;SDS011;45588;51.598;5.618;2023-01-08T02:12:40;5.50;;;2.10;;
59728;SDS011;45588;51.598;5.618;2023-01-08T02:17:38;6.57;;;2.50;;
59728;SDS011;45588;51.598;5.618;2023-01-08T02:20:12;5.53;;;2.45;;
59728;SDS011;45588;51.598;5.618;2023-01-08T02:25:11;6.25;;;2.50;;
59728;SDS011;45588;51.598;5.618;2023-01-08T02:27:41;6.60;;;2.33;;
59728;SDS011;45588;51.598;5.618;2023-01-08T02:30:09;5.07;;;2.30;;
59728;SDS011;45588;51.598;5.618;2023-01-08T02:32:38;7.43;;;2.28;;
59728;SDS011;45588;51.598;5.618;2023-01-08T02:35:05;4.40;;;2.20;;
59728;SDS011;45588;51.598;5.618;2023-01-08T02:37:30;9.25;;;3.17;;
59728;SDS011;45588;51.598;5.618;2023-01-08T02:47:40;4.78;;;2.00;;
59728;SDS011;45588;51.598;5.618;2023-01-08T02:50:09;6.75;;;2.40;;
59728;SDS011;45588;51.598;5.618;2023-01-08T02:52:43;6.30;;;1.92;;
59728;SDS011;45588;51.598;5.618;2023-01-08T02:55:11;6.43;;;2.00;;
59728;SDS011;45588;51.598;5.618;2023-01-08T02:57:36;5.63;;;2.10;;
59728;SDS011;45588;51.598;5.618;2023-01-08T03:00:02;4.30;;;2.10;;
59728;SDS011;45588;51.598;5.618;2023-01-08T03:02:28;4.95;;;2.60;;
59728;SDS011;45588;51.598;5.618;2023-01-08T03:04:56;5.65;;;2.20;;
59728;SDS011;45588;51.598;5.618;2023-01-08T03:07:24;7.72;;;1.95;;
59728;SDS011;45588;51.598;5.618;2023-01-08T03:09:49;6.53;;;2.35;;
59728;SDS011;45588;51.598;5.618;2023-01-08T03:12:15;5.00;;;1.83;;
59728;SDS011;45588;51.598;5.618;2023-01-08T03:14:43;7.57;;;2.78;;
59728;SDS011;45588;51.598;5.618;2023-01-08T03:17:17;6.55;;;1.80;;
59728;SDS011;45588;51.598;5.618;2023-01-08T03:19:46;5.88;;;2.15;;
59728;SDS011;45588;51.598;5.618;2023-01-08T03:22:13;6.88;;;2.40;;
59728;SDS011;45588;51.598;5.618;2023-01-08T03:24:40;9.20;;;2.60;;
59728;SDS011;45588;51.598;5.618;2023-01-08T03:27:06;6.88;;;1.98;;
59728;SDS011;45588;51.598;5.618;2023-01-08T03:29:33;8.25;;;2.05;;
59728;SDS011;45588;51.598;5.618;2023-01-08T03:32:01;8.35;;;2.63;;
59728;SDS011;45588;51.598;5.618;2023-01-08T03:34:27;5.55;;;1.90;;
59728;SDS011;45588;51.598;5.618;2023-01-08T03:36:56;9.60;;;2.53;;
59728;SDS011;45588;51.598;5.618;2023-01-08T03:39:27;7.22;;;2.28;;
59728;SDS011;45588;51.598;5.618;2023-01-08T03:41:55;7.85;;;2.03;;
59728;SDS011;45588;51.598;5.618;2023-01-08T03:44:22;8.50;;;2.60;;
59728;SDS011;45588;51.598;5.618;2023-01-08T03:46:48;4.93;;;1.33;;
59728;SDS011;45588;51.598;5.618;2023-01-08T03:49:14;4.25;;;1.80;;
59728;SDS011;45588;51.598;5.618;2023-01-08T03:51:44;7.35;;;2.08;;
59728;SDS011;45588;51.598;5.618;2023-01-08T03:54:12;7.93;;;2.83;;
59728;SDS011;45588;51.598;5.618;2023-01-08T03:56:37;6.95;;;2.28;;
59728;SDS011;45588;51.598;5.618;2023-01-08T03:59:03;5.88;;;1.88;;
59728;SDS011;45588;51.598;5.618;2023-01-08T04:01:28;8.73;;;2.00;;
59728;SDS011;45588;51.598;5.618;2023-01-08T04:03:53;5.68;;;2.28;;
59728;SDS011;45588;51.598;5.618;2023-01-08T04:06:18;5.68;;;1.92;;
59728;SDS011;45588;51.598;5.618;2023-01-08T04:08:45;6.97;;;1.87;;
59728;SDS011;45588;51.598;5.618;2023-01-08T04:11:11;5.88;;;2.17;;
59728;SDS011;45588;51.598;5.618;2023-01-08T04:13:36;9.33;;;2.60;;
59728;SDS011;45588;51.598;5.618;2023-01-08T04:16:01;10.80;;;2.33;;
59728;SDS011;45588;51.598;5.618;2023-01-08T04:18:26;6.93;;;2.15;;
59728;SDS011;45588;51.598;5.618;2023-01-08T04:20:51;5.30;;;1.80;;
59728;SDS011;45588;51.598;5.618;2023-01-08T04:23:16;6.27;;;2.00;;
59728;SDS011;45588;51.598;5.618;2023-01-08T04:25:42;4.80;;;2.30;;
59728;SDS011;45588;51.598;5.618;2023-01-08T04:28:07;7.78;;;2.35;;
59728;SDS011;45588;51.598;5.618;2023-01-08T04:30:32;5.40;;;2.15;;
59728;SDS011;45588;51.598;5.618;2023-01-08T04:32:57;9.23;;;2.37;;
59728;SDS011;45588;51.598;5.618;2023-01-08T04:35:22;7.35;;;2.40;;
59728;SDS011;45588;51.598;5.618;2023-01-08T04:37:48;7.18;;;3.00;;
59728;SDS011;45588;51.598;5.618;2023-01-08T04:40:13;10.80;;;3.07;;
59728;SDS011;45588;51.598;5.618;2023-01-08T04:42:38;7.38;;;2.90;;
59728;SDS011;45588;51.598;5.618;2023-01-08T04:45:04;6.07;;;3.15;;
59728;SDS011;45588;51.598;5.618;2023-01-08T04:47:29;7.90;;;2.80;;
59728;SDS011;45588;51.598;5.618;2023-01-08T04:49:54;8.57;;;3.87;;
59728;SDS011;45588;51.598;5.618;2023-01-08T04:52:20;7.00;;;3.30;;
59728;SDS011;45588;51.598;5.618;2023-01-08T04:54:45;8.17;;;3.57;;
59728;SDS011;45588;51.598;5.618;2023-01-08T04:57:10;8.82;;;3.53;;
59728;SDS011;45588;51.598;5.618;2023-01-08T04:59:35;10.23;;;3.60;;
59728;SDS011;45588;51.598;5.618;2023-01-08T05:02:00;8.63;;;1.83;;
59728;SDS011;45588;51.598;5.618;2023-01-08T05:04:25;6.65;;;2.92;;
59728;SDS011;45588;51.598;5.618;2023-01-08T05:06:51;5.32;;;2.78;;
59728;SDS011;45588;51.598;5.618;2023-01-08T05:09:16;9.40;;;3.17;;
59728;SDS011;45588;51.598;5.618;2023-01-08T05:11:41;8.00;;;2.20;;
59728;SDS011;45588;51.598;5.618;2023-01-08T05:14:07;8.40;;;2.90;;
59728;SDS011;45588;51.598;5.618;2023-01-08T05:16:32;5.32;;;2.05;;
59728;SDS011;45588;51.598;5.618;2023-01-08T05:18:57;5.05;;;2.28;;
59728;SDS011;45588;51.598;5.618;2023-01-08T05:21:22;5.23;;;1.90;;
59728;SDS011;45588;51.598;5.618;2023-01-08T05:23:48;4.60;;;2.37;;
59728;SDS011;45588;51.598;5.618;2023-01-08T05:26:13;7.03;;;2.70;;
59728;SDS011;45588;51.598;5.618;2023-01-08T05:28:39;2.92;;;2.03;;
59728;SDS011;45588;51.598;5.618;2023-01-08T05:31:04;3.38;;;2.15;;
59728;SDS011;45588;51.598;5.618;2023-01-08T05:33:29;5.73;;;3.00;;
59728;SDS011;45588;51.598;5.618;2023-01-08T05:35:55;7.13;;;2.63;;
59728;SDS011;45588;51.598;5.618;2023-01-08T05:38:20;5.18;;;2.65;;
59728;SDS011;45588;51.598;5.618;2023-01-08T05:40:45;1.83;;;1.30;;
59728;SDS011;45588;51.598;5.618;2023-01-08T05:43:10;6.10;;;3.20;;
59728;SDS011;45588;51.598;5.618;2023-01-08T05:45:36;3.58;;;1.58;;
59728;SDS011;45588;51.598;5.618;2023-01-08T05:48:04;8.00;;;2.67;;
59728;SDS011;45588;51.598;5.618;2023-01-08T05:50:30;5.80;;;2.97;;
59728;SDS011;45588;51.598;5.618;2023-01-08T05:52:56;5.55;;;2.63;;
59728;SDS011;45588;51.598;5.618;2023-01-08T05:55:21;5.60;;;2.50;;
59728;SDS011;45588;51.598;5.618;2023-01-08T05:57:46;5.63;;;1.50;;
59728;SDS011;45588;51.598;5.618;2023-01-08T06:00:11;8.83;;;2.93;;
59728;SDS011;45588;51.598;5.618;2023-01-08T06:02:37;6.88;;;2.90;;
59728;SDS011;45588;51.598;5.618;2023-01-08T06:05:02;8.90;;;3.60;;
59728;SDS011;45588;51.598;5.618;2023-01-08T06:07:28;8.65;;;2.88;;
59728;SDS011;45588;51.598;5.618;2023-01-08T06:09:53;8.00;;;2.80;;
59728;SDS011;45588;51.598;5.618;2023-01-08T06:12:18;11.20;;;2.55;;
59728;SDS011;45588;51.598;5.618;2023-01-08T06:14:43;9.07;;;2.92;;
59728;SDS011;45588;51.598;5.618;2023-01-08T06:17:08;8.63;;;2.80;;
59728;SDS011;45588;51.598;5.618;2023-01-08T06:19:34;8.38;;;2.80;;
59728;SDS011;45588;51.598;5.618;2023-01-08T06:21:59;6.57;;;3.15;;
59728;SDS011;45588;51.598;5.618;2023-01-08T06:24:24;7.90;;;3.13;;
59728;SDS011;45588;51.598;5.618;2023-01-08T06:26:49;7.20;;;3.10;;
59728;SDS011;45588;51.598;5.618;2023-01-08T06:29:14;7.43;;;2.70;;
59728;SDS011;45588;51.598;5.618;2023-01-08T06:31:40;8.40;;;2.97;;
59728;SDS011;45588;51.598;5.618;2023-01-08T06:34:05;3.45;;;1.30;;
59728;SDS011;45588;51.598;5.618;2023-01-08T06:36:30;5.50;;;2.38;;
59728;SDS011;45588;51.598;5.618;2023-01-08T06:38:55;9.20;;;3.00;;
59728;SDS011;45588;51.598;5.618;2023-01-08T06:41:20;9.27;;;2.47;;
59728;SDS011;45588;51.598;5.618;2023-01-08T06:43:46;8.60;;;2.50;;
59728;SDS011;45588;51.598;5.618;2023-01-08T06:46:11;8.10;;;2.30;;
59728;SDS011;45588;51.598;5.618;2023-01-08T06:48:36;3.63;;;0.85;;
59728;SDS011;45588;51.598;5.618;2023-01-08T06:51:02;5.60;;;2.53;;
59728;SDS011;45588;51.598;5.618;2023-01-08T06:53:27;6.50;;;2.38;;
59728;SDS011;45588;51.598;5.618;2023-01-08T06:55:53;5.57;;;1.40;;
59728;SDS011;45588;51.598;5.618;2023-01-08T06:58:21;6.80;;;2.35;;
59728;SDS011;45588;51.598;5.618;2023-01-08T07:00:46;7.63;;;2.30;;
59728;SDS011;45588;51.598;5.618;2023-01-08T07:03:12;3.63;;;1.00;;
59728;SDS011;45588;51.598;5.618;2023-01-08T07:05:37;7.55;;;2.35;;
59728;SDS011;45588;51.598;5.618;2023-01-08T07:08:02;10.73;;;2.30;;
59728;SDS011;45588;51.598;5.618;2023-01-08T07:10:27;11.23;;;2.95;;
59728;SDS011;45588;51.598;5.618;2023-01-08T07:12:55;10.90;;;2.42;;
59728;SDS011;45588;51.598;5.618;2023-01-08T07:15:20;11.10;;;2.65;;
59728;SDS011;45588;51.598;5.618;2023-01-08T07:17:45;7.00;;;1.60;;
59728;SDS011;45588;51.598;5.618;2023-01-08T07:20:10;8.55;;;3.00;;
59728;SDS011;45588;51.598;5.618;2023-01-08T07:22:36;9.23;;;2.78;;
59728;SDS011;45588;51.598;5.618;2023-01-08T07:25:02;11.35;;;2.95;;
59728;SDS011;45588;51.598;5.618;2023-01-08T07:27:28;5.05;;;1.65;;
59728;SDS011;45588;51.598;5.618;2023-01-08T07:29:54;18.30;;;3.20;;
59728;SDS011;45588;51.598;5.618;2023-01-08T07:32:20;11.02;;;2.75;;
59728;SDS011;45588;51.598;5.618;2023-01-08T07:34:45;9.90;;;3.20;;
59728;SDS011;45588;51.598;5.618;2023-01-08T07:37:10;16.83;;;4.03;;
59728;SDS011;45588;51.598;5.618;2023-01-08T07:39:35;14.25;;;3.10;;
59728;SDS011;45588;51.598;5.618;2023-01-08T07:42:00;5.17;;;1.27;;
59728;SDS011;45588;51.598;5.618;2023-01-08T07:44:25;8.43;;;2.53;;
59728;SDS011;45588;51.598;5.618;2023-01-08T07:46:50;10.68;;;2.67;;
59728;SDS011;45588;51.598;5.618;2023-01-08T07:49:16;8.83;;;2.90;;
59728;SDS011;45588;51.598;5.618;2023-01-08T07:51:41;12.23;;;3.10;;
59728;SDS011;45588;51.598;5.618;2023-01-08T07:54:06;7.93;;;2.50;;
59728;SDS011;45588;51.598;5.618;2023-01-08T07:56:31;9.23;;;2.75;;
59728;SDS011;45588;51.598;5.618;2023-01-08T07:58:56;6.65;;;1.33;;
59728;SDS011;45588;51.598;5.618;2023-01-08T08:01:22;11.65;;;2.90;;
59728;SDS011;45588;51.598;5.618;2023-01-08T08:03:47;10.98;;;3.10;;
59728;SDS011;45588;51.598;5.618;2023-01-08T08:06:13;8.30;;;2.85;;
59728;SDS011;45588;51.598;5.618;2023-01-08T08:08:38;8.77;;;2.55;;
59728;SDS011;45588;51.598;5.618;2023-01-08T08:11:03;13.55;;;3.00;;
59728;SDS011;45588;51.598;5.618;2023-01-08T08:13:28;13.63;;;3.17;;
59728;SDS011;45588;51.598;5.618;2023-01-08T08:15:54;9.75;;;1.95;;
59728;SDS011;45588;51.598;5.618;2023-01-08T08:18:19;16.30;;;3.25;;
59728;SDS011;45588;51.598;5.618;2023-01-08T08:20:44;10.15;;;2.53;;
59728;SDS011;45588;51.598;5.618;2023-01-08T08:23:11;7.75;;;2.60;;
59728;SDS011;45588;51.598;5.618;2023-01-08T08:25:40;10.73;;;2.58;;
59728;SDS011;45588;51.598;5.618;2023-01-08T08:28:05;11.30;;;2.65;;
59728;SDS011;45588;51.598;5.618;2023-01-08T08:30:31;8.18;;;1.90;;
59728;SDS011;45588;51.598;5.618;2023-01-08T08:33:00;12.43;;;3.13;;
59728;SDS011;45588;51.598;5.618;2023-01-08T08:35:26;11.02;;;3.03;;
59728;SDS011;45588;51.598;5.618;2023-01-08T08:37:52;15.52;;;2.97;;
59728;SDS011;45588;51.598;5.618;2023-01-08T08:40:17;14.68;;;3.35;;
59728;SDS011;45588;51.598;5.618;2023-01-08T08:42:42;10.17;;;2.77;;
59728;SDS011;45588;51.598;5.618;2023-01-08T08:45:07;8.57;;;3.20;;
59728;SDS011;45588;51.598;5.618;2023-01-08T08:47:33;9.50;;;3.38;;
59728;SDS011;45588;51.598;5.618;2023-01-08T08:49:58;14.23;;;3.33;;
59728;SDS011;45588;51.598;5.618;2023-01-08T08:52:23;6.85;;;1.63;;
59728;SDS011;45588;51.598;5.618;2023-01-08T08:54:48;3.33;;;1.23;;
59728;SDS011;45588;51.598;5.618;2023-01-08T08:57:14;6.87;;;2.50;;
59728;SDS011;45588;51.598;5.618;2023-01-08T08:59:39;9.00;;;2.63;;
59728;SDS011;45588;51.598;5.618;2023-01-08T09:02:04;13.02;;;3.13;;
59728;SDS011;45588;51.598;5.618;2023-01-08T09:04:32;10.80;;;3.33;;
59728;SDS011;45588;51.598;5.618;2023-01-08T09:06:58;9.93;;;3.50;;
59728;SDS011;45588;51.598;5.618;2023-01-08T09:09:23;14.80;;;3.65;;
59728;SDS011;45588;51.598;5.618;2023-01-08T09:11:49;12.77;;;3.00;;
59728;SDS011;45588;51.598;5.618;2023-01-08T09:14:14;9.73;;;3.13;;
59728;SDS011;45588;51.598;5.618;2023-01-08T09:16:39;10.93;;;3.35;;
59728;SDS011;45588;51.598;5.618;2023-01-08T09:19:04;14.07;;;3.70;;
59728;SDS011;45588;51.598;5.618;2023-01-08T09:21:31;12.25;;;3.45;;
59728;SDS011;45588;51.598;5.618;2023-01-08T09:23:56;12.93;;;3.17;;
59728;SDS011;45588;51.598;5.618;2023-01-08T09:26:21;12.77;;;3.17;;
59728;SDS011;45588;51.598;5.618;2023-01-08T09:28:46;12.05;;;3.08;;
59728;SDS011;45588;51.598;5.618;2023-01-08T09:31:11;13.57;;;3.10;;
59728;SDS011;45588;51.598;5.618;2023-01-08T09:33:37;13.93;;;3.70;;
59728;SDS011;45588;51.598;5.618;2023-01-08T09:36:02;9.98;;;3.60;;
59728;SDS011;45588;51.598;5.618;2023-01-08T09:38:27;12.43;;;3.47;;
59728;SDS011;45588;51.598;5.618;2023-01-08T09:40:59;13.57;;;3.78;;
59728;SDS011;45588;51.598;5.618;2023-01-08T09:43:27;11.10;;;3.03;;
59728;SDS011;45588;51.598;5.618;2023-01-08T09:45:57;12.77;;;4.05;;
59728;SDS011;45588;51.598;5.618;2023-01-08T09:48:24;7.20;;;2.15;;
59728;SDS011;45588;51.598;5.618;2023-01-08T09:50:51;14.13;;;3.35;;
59728;SDS011;45588;51.598;5.618;2023-01-08T09:53:17;10.18;;;3.35;;
59728;SDS011;45588;51.598;5.618;2023-01-08T09:55:43;9.70;;;3.13;;
59728;SDS011;45588;51.598;5.618;2023-01-08T10:00:49;21.77;;;4.80;;
59728;SDS011;45588;51.598;5.618;2023-01-08T10:03:14;14.40;;;4.35;;
59728;SDS011;45588;51.598;5.618;2023-01-08T10:05:39;16.20;;;4.00;;
59728;SDS011;45588;51.598;5.618;2023-01-08T10:08:05;11.77;;;4.35;;
59728;SDS011;45588;51.598;5.618;2023-01-08T10:10:31;12.05;;;5.07;;
59728;SDS011;45588;51.598;5.618;2023-01-08T10:12:56;15.40;;;6.10;;
59728;SDS011;45588;51.598;5.618;2023-01-08T10:15:22;14.43;;;4.00;;
59728;SDS011;45588;51.598;5.618;2023-01-08T10:17:50;9.75;;;3.20;;
59728;SDS011;45588;51.598;5.618;2023-01-08T10:20:19;9.57;;;2.00;;
59728;SDS011;45588;51.598;5.618;2023-01-08T10:22:45;13.93;;;3.45;;
59728;SDS011;45588;51.598;5.618;2023-01-08T10:25:17;8.40;;;2.03;;
59728;SDS011;45588;51.598;5.618;2023-01-08T10:27:56;12.45;;;3.83;;
59728;SDS011;45588;51.598;5.618;2023-01-08T10:30:22;15.10;;;4.18;;
59728;SDS011;45588;51.598;5.618;2023-01-08T10:32:50;12.75;;;3.13;;
59728;SDS011;45588;51.598;5.618;2023-01-08T10:35:16;2.80;;;1.98;;
59728;SDS011;45588;51.598;5.618;2023-01-08T10:37:42;15.98;;;3.05;;
59728;SDS011;45588;51.598;5.618;2023-01-08T10:40:27;9.20;;;3.08;;
59728;SDS011;45588;51.598;5.618;2023-01-08T10:42:54;8.43;;;3.22;;
59728;SDS011;45588;51.598;5.618;2023-01-08T10:45:20;5.85;;;2.28;;
59728;SDS011;45588;51.598;5.618;2023-01-08T10:47:47;8.25;;;2.70;;
59728;SDS011;45588;51.598;5.618;2023-01-08T10:50:20;5.40;;;2.72;;
59728;SDS011;45588;51.598;5.618;2023-01-08T10:52:56;5.55;;;2.13;;
59728;SDS011;45588;51.598;5.618;2023-01-08T10:57:57;5.90;;;2.10;;
59728;SDS011;45588;51.598;5.618;2023-01-08T11:00:24;6.03;;;1.73;;
59728;SDS011;45588;51.598;5.618;2023-01-08T11:02:49;6.32;;;1.95;;
59728;SDS011;45588;51.598;5.618;2023-01-08T11:05:15;5.63;;;1.90;;
59728;SDS011;45588;51.598;5.618;2023-01-08T11:07:40;5.35;;;1.30;;
59728;SDS011;45588;51.598;5.618;2023-01-08T11:10:05;5.97;;;1.90;;
59728;SDS011;45588;51.598;5.618;2023-01-08T11:12:43;3.50;;;1.30;;
59728;SDS011;45588;51.598;5.618;2023-01-08T11:17:41;3.78;;;2.83;;
59728;SDS011;45588;51.598;5.618;2023-01-08T11:22:44;3.65;;;1.38;;
59728;SDS011;45588;51.598;5.618;2023-01-08T11:25:13;2.50;;;1.33;;
59728;SDS011;45588;51.598;5.618;2023-01-08T11:27:40;1.35;;;1.08;;
59728;SDS011;45588;51.598;5.618;2023-01-08T11:32:51;1.20;;;1.10;;
59728;SDS011;45588;51.598;5.618;2023-01-08T11:35:28;2.28;;;0.93;;
59728;SDS011;45588;51.598;5.618;2023-01-08T11:37:55;2.15;;;0.90;;
59728;SDS011;45588;51.598;5.618;2023-01-08T11:40:30;2.38;;;0.90;;
59728;SDS011;45588;51.598;5.618;2023-01-08T11:43:15;2.05;;;0.93;;
59728;SDS011;45588;51.598;5.618;2023-01-08T11:48:14;1.90;;;0.88;;
59728;SDS011;45588;51.598;5.618;2023-01-08T11:53:18;2.13;;;0.80;;
59728;SDS011;45588;51.598;5.618;2023-01-08T12:01:23;1.65;;;1.10;;
59728;SDS011;45588;51.598;5.618;2023-01-08T12:03:53;2.38;;;1.17;;
59728;SDS011;45588;51.598;5.618;2023-01-08T12:11:24;2.80;;;1.30;;
59728;SDS011;45588;51.598;5.618;2023-01-08T12:16:23;2.95;;;1.70;;
59728;SDS011;45588;51.598;5.618;2023-01-08T12:21:40;4.32;;;1.50;;
59728;SDS011;45588;51.598;5.618;2023-01-08T12:26:45;6.10;;;1.95;;
59728;SDS011;45588;51.598;5.618;2023-01-08T12:29:26;7.47;;;2.05;;
59728;SDS011;45588;51.598;5.618;2023-01-08T12:34:32;5.88;;;2.10;;
59728;SDS011;45588;51.598;5.618;2023-01-08T12:37:01;7.90;;;2.40;;
59728;SDS011;45588;51.598;5.618;2023-01-08T12:39:29;6.88;;;1.88;;
59728;SDS011;45588;51.598;5.618;2023-01-08T12:41:59;4.28;;;1.88;;
59728;SDS011;45588;51.598;5.618;2023-01-08T12:44:27;5.65;;;2.10;;
59728;SDS011;45588;51.598;5.618;2023-01-08T12:46:54;3.90;;;2.17;;
59728;SDS011;45588;51.598;5.618;2023-01-08T12:49:25;6.40;;;2.30;;
59728;SDS011;45588;51.598;5.618;2023-01-08T12:52:07;5.47;;;2.00;;
59728;SDS011;45588;51.598;5.618;2023-01-08T13:04:54;7.68;;;2.35;;
59728;SDS011;45588;51.598;5.618;2023-01-08T13:07:20;6.73;;;2.87;;
59728;SDS011;45588;51.598;5.618;2023-01-08T13:09:54;4.50;;;2.08;;
59728;SDS011;45588;51.598;5.618;2023-01-08T13:12:23;7.93;;;2.40;;
59728;SDS011;45588;51.598;5.618;2023-01-08T13:14:50;6.43;;;1.73;;
59728;SDS011;45588;51.598;5.618;2023-01-08T13:17:16;6.45;;;2.25;;
59728;SDS011;45588;51.598;5.618;2023-01-08T13:19:43;6.35;;;2.13;;
59728;SDS011;45588;51.598;5.618;2023-01-08T13:22:41;6.50;;;2.28;;
59728;SDS011;45588;51.598;5.618;2023-01-08T13:27:37;7.72;;;2.03;;
59728;SDS011;45588;51.598;5.618;2023-01-08T13:30:02;9.43;;;1.98;;
59728;SDS011;45588;51.598;5.618;2023-01-08T13:32:40;6.05;;;2.15;;
59728;SDS011;45588;51.598;5.618;2023-01-08T13:37:40;6.45;;;2.38;;
59728;SDS011;45588;51.598;5.618;2023-01-08T13:42:49;7.13;;;2.40;;
59728;SDS011;45588;51.598;5.618;2023-01-08T13:45:15;7.03;;;2.15;;
59728;SDS011;45588;51.598;5.618;2023-01-08T13:47:41;8.30;;;1.95;;
59728;SDS011;45588;51.598;5.618;2023-01-08T13:50:16;8.07;;;2.25;;
59728;SDS011;45588;51.598;5.618;2023-01-08T13:52:45;5.50;;;1.98;;
59728;SDS011;45588;51.598;5.618;2023-01-08T13:55:15;9.77;;;2.85;;
59728;SDS011;45588;51.598;5.618;2023-01-08T13:57:42;5.38;;;1.38;;
59728;SDS011;45588;51.598;5.618;2023-01-08T14:00:13;9.75;;;2.58;;
59728;SDS011;45588;51.598;5.618;2023-01-08T14:02:44;10.23;;;2.78;;
59728;SDS011;45588;51.598;5.618;2023-01-08T14:05:25;6.60;;;2.17;;
59728;SDS011;45588;51.598;5.618;2023-01-08T14:07:50;7.15;;;1.92;;
59728;SDS011;45588;51.598;5.618;2023-01-08T14:10:16;10.02;;;2.30;;
59728;SDS011;45588;51.598;5.618;2023-01-08T14:12:41;6.55;;;2.35;;
59728;SDS011;45588;51.598;5.618;2023-01-08T14:15:07;7.93;;;2.00;;
59728;SDS011;45588;51.598;5.618;2023-01-08T14:17:34;6.90;;;2.10;;
59728;SDS011;45588;51.598;5.618;2023-01-08T14:19:59;11.93;;;2.42;;
59728;SDS011;45588;51.598;5.618;2023-01-08T14:22:26;8.82;;;2.38;;
59728;SDS011;45588;51.598;5.618;2023-01-08T14:24:54;8.88;;;2.60;;
59728;SDS011;45588;51.598;5.618;2023-01-08T14:27:21;7.13;;;2.08;;
59728;SDS011;45588;51.598;5.618;2023-01-08T14:29:46;11.90;;;2.88;;
59728;SDS011;45588;51.598;5.618;2023-01-08T14:32:15;4.07;;;1.90;;
59728;SDS011;45588;51.598;5.618;2023-01-08T14:34:41;11.38;;;2.30;;
59728;SDS011;45588;51.598;5.618;2023-01-08T14:37:10;7.05;;;2.40;;
59728;SDS011;45588;51.598;5.618;2023-01-08T14:39:36;11.00;;;2.47;;
59728;SDS011;45588;51.598;5.618;2023-01-08T14:42:05;10.55;;;2.65;;
59728;SDS011;45588;51.598;5.618;2023-01-08T14:44:57;13.55;;;2.45;;
59728;SDS011;45588;51.598;5.618;2023-01-08T14:47:26;7.68;;;2.70;;
59728;SDS011;45588;51.598;5.618;2023-01-08T14:49:53;9.80;;;3.00;;
59728;SDS011;45588;51.598;5.618;2023-01-08T14:52:18;8.80;;;2.10;;
59728;SDS011;45588;51.598;5.618;2023-01-08T14:54:45;10.85;;;3.05;;
59728;SDS011;45588;51.598;5.618;2023-01-08T14:57:12;8.93;;;2.90;;
59728;SDS011;45588;51.598;5.618;2023-01-08T14:59:37;11.15;;;2.83;;
59728;SDS011;45588;51.598;5.618;2023-01-08T15:02:03;5.32;;;1.98;;
59728;SDS011;45588;51.598;5.618;2023-01-08T15:04:29;8.35;;;2.95;;
59728;SDS011;45588;51.598;5.618;2023-01-08T15:07:08;9.63;;;2.90;;
59728;SDS011;45588;51.598;5.618;2023-01-08T15:09:40;13.65;;;2.47;;
59728;SDS011;45588;51.598;5.618;2023-01-08T15:12:05;7.83;;;3.23;;
59728;SDS011;45588;51.598;5.618;2023-01-08T15:14:31;7.97;;;2.50;;
59728;SDS011;45588;51.598;5.618;2023-01-08T15:17:03;6.10;;;2.58;;
59728;SDS011;45588;51.598;5.618;2023-01-08T15:19:29;7.50;;;2.65;;
59728;SDS011;45588;51.598;5.618;2023-01-08T15:21:59;9.52;;;2.95;;
59728;SDS011;45588;51.598;5.618;2023-01-08T15:26:56;8.18;;;2.97;;
59728;SDS011;45588;51.598;5.618;2023-01-08T15:29:29;8.15;;;3.00;;
59728;SDS011;45588;51.598;5.618;2023-01-08T15:32:06;6.65;;;2.47;;
59728;SDS011;45588;51.598;5.618;2023-01-08T15:34:32;11.60;;;2.70;;
59728;SDS011;45588;51.598;5.618;2023-01-08T15:36:57;5.95;;;2.38;;
59728;SDS011;45588;51.598;5.618;2023-01-08T15:39:22;6.67;;;2.17;;
59728;SDS011;45588;51.598;5.618;2023-01-08T15:41:47;8.00;;;3.03;;
59728;SDS011;45588;51.598;5.618;2023-01-08T15:44:31;6.43;;;1.42;;
59728;SDS011;45588;51.598;5.618;2023-01-08T15:46:56;8.30;;;2.60;;
59728;SDS011;45588;51.598;5.618;2023-01-08T15:49:22;8.05;;;2.05;;
59728;SDS011;45588;51.598;5.618;2023-01-08T15:51:47;8.52;;;2.92;;
59728;SDS011;45588;51.598;5.618;2023-01-08T15:54:13;9.57;;;2.22;;
59728;SDS011;45588;51.598;5.618;2023-01-08T15:56:39;13.07;;;2.85;;
59728;SDS011;45588;51.598;5.618;2023-01-08T15:59:04;7.82;;;2.20;;